Time;durP1;ratioP1;P1;durP2;ratioP2;P2;SDS_P1;SDS_P2;PMS_P1;PMS_P2;Temp;Humidity;BMP_temperature;BMP_pressure;BME280_temperature;BME280_humidity;BME280_pressure;Samples;Min_cycle;Max_cycle;Signal;HPM_P1;HPM_P2
2023/03/28 00:01:02;;;;;;;9.77;3.05;;;;;;;0.29;90.78;102555.38;5066157;28;20041;-76
2023/03/28 00:03:34;;;;;;;13.52;3.10;;;;;;;0.25;90.69;102553.47;5063992;28;20049;-78
2023/03/28 00:06:08;;;;;;;10.45;3.40;;;;;;;0.23;90.65;102569.00;5065772;28;20056;-78
2023/03/28 00:08:38;;;;;;;8.57;2.35;;;;;;;0.17;90.69;102562.69;5064859;28;20052;-78
2023/03/28 00:11:18;;;;;;;13.68;3.50;;;;;;;0.12;91.02;102560.78;5065243;28;20052;-78
2023/03/28 00:13:56;;;;;;;8.70;2.90;;;;;;;0.07;90.69;102564.00;5065732;28;20541;-78
2023/03/28 00:16:26;;;;;;;7.53;2.90;;;;;;;0.04;90.71;102563.88;5064188;28;20064;-78
2023/03/28 00:18:53;;;;;;;12.10;3.10;;;;;;;0.01;90.84;102562.03;5059815;28;20045;-75
2023/03/28 00:21:26;;;;;;;9.32;3.15;;;;;;;-0.02;91.26;102559.34;5064811;28;20056;-75
2023/03/28 00:23:56;;;;;;;11.55;3.88;;;;;;;-0.07;91.13;102561.75;5063331;28;20045;-75
2023/03/28 00:26:25;;;;;;;12.65;3.13;;;;;;;-0.09;91.10;102557.28;5064631;28;20175;-75
2023/03/28 00:28:53;;;;;;;7.80;3.13;;;;;;;-0.11;91.08;102552.06;5063195;28;20131;-75
2023/03/28 00:31:22;;;;;;;10.60;3.22;;;;;;;-0.14;91.17;102558.81;5059810;28;20048;-76
2023/03/28 00:33:49;;;;;;;9.65;2.95;;;;;;;-0.17;91.23;102562.19;5061947;28;20059;-76
2023/03/28 00:36:25;;;;;;;9.93;3.00;;;;;;;-0.18;91.41;102560.41;5065113;28;20037;-76
2023/03/28 00:38:52;;;;;;;11.10;3.55;;;;;;;-0.21;91.32;102562.88;5063594;28;20041;-78
2023/03/28 00:41:22;;;;;;;9.60;3.28;;;;;;;-0.23;91.51;102560.22;5063893;28;20050;-78
2023/03/28 00:43:54;;;;;;;9.43;3.03;;;;;;;-0.22;91.60;102561.09;5062650;28;20145;-78
2023/03/28 00:46:40;;;;;;;10.25;3.08;;;;;;;-0.24;91.57;102554.94;5061770;28;20501;-78
2023/03/28 00:49:23;;;;;;;9.77;2.90;;;;;;;-0.27;91.54;102558.31;5062410;28;20120;-78
2023/03/28 00:52:02;;;;;;;9.18;2.70;;;;;;;-0.29;91.46;102562.53;5064758;28;20203;-78
2023/03/28 00:54:38;;;;;;;9.13;3.25;;;;;;;-0.34;91.51;102564.94;5062744;28;20045;-78
2023/03/28 00:57:08;;;;;;;11.25;3.35;;;;;;;-0.36;91.66;102564.00;5064397;28;20120;-78
2023/03/28 00:59:37;;;;;;;10.98;3.05;;;;;;;-0.42;91.61;102561.13;5063611;28;20052;-78
2023/03/28 01:02:06;;;;;;;7.22;2.95;;;;;;;-0.44;91.70;102562.78;5067493;28;20045;-77
2023/03/28 01:04:48;;;;;;;7.10;3.30;;;;;;;-0.50;91.80;102565.97;5069358;28;20754;-77
2023/03/28 01:07:20;;;;;;;9.85;2.95;;;;;;;-0.53;91.88;102562.38;5085062;28;20052;-77
2023/03/28 01:09:48;;;;;;;13.23;3.30;;;;;;;-0.54;91.97;102565.78;5065799;28;20036;-76
2023/03/28 01:12:18;;;;;;;10.52;2.33;;;;;;;-0.55;91.86;102564.00;5065776;28;20072;-76
2023/03/28 01:14:47;;;;;;;10.43;3.83;;;;;;;-0.59;92.15;102563.00;5067198;28;20159;-75
2023/03/28 01:17:19;;;;;;;13.73;3.88;;;;;;;-0.58;92.23;102557.00;5067099;28;20057;-76
2023/03/28 01:20:18;;;;;;;7.77;3.23;;;;;;;-0.55;92.45;102556.22;5066235;28;20151;-75
2023/03/28 01:23:36;;;;;;;6.75;2.47;;;;;;;-0.57;92.29;102553.59;5061651;28;20485;-75
2023/03/28 01:26:32;;;;;;;6.45;2.28;;;;;;;-0.65;92.36;102555.84;5058005;28;20090;-78
2023/03/28 01:29:49;;;;;;;9.25;3.20;;;;;;;-0.68;92.38;102549.66;5064764;28;20424;-77
2023/03/28 01:32:38;;;;;;;9.40;2.63;;;;;;;-0.71;92.39;102550.41;5065517;28;20171;-78
2023/03/28 01:36:04;;;;;;;7.53;2.42;;;;;;;-0.75;92.41;102551.06;5065940;28;20092;-78
2023/03/28 01:38:58;;;;;;;10.05;2.72;;;;;;;-0.78;92.52;102550.97;5066278;28;20046;-78
2023/03/28 01:42:13;;;;;;;9.57;2.80;;;;;;;-0.80;92.50;102550.88;5059762;28;20045;-78
2023/03/28 01:45:31;;;;;;;13.60;3.45;;;;;;;-0.82;92.45;102552.53;5059616;28;20068;-78
2023/03/28 01:48:36;;;;;;;14.77;3.97;;;;;;;-0.83;92.51;102553.34;5056244;28;20524;-79
2023/03/28 01:51:52;;;;;;;12.30;4.05;;;;;;;-0.86;92.56;102547.13;5080882;28;20262;-78
2023/03/28 01:54:32;;;;;;;;;;;;;;;-0.89;92.54;102553.06;5059977;28;20509;-78
2023/03/28 01:57:12;;;;;;;10.68;3.53;;;;;;;-0.90;92.44;102547.81;5070158;28;20037;-79
2023/03/28 01:59:51;;;;;;;12.02;3.65;;;;;;;-0.90;92.70;102553.00;5079700;28;20052;-79
2023/03/28 02:03:03;;;;;;;14.90;4.40;;;;;;;-0.88;92.80;102548.78;5062256;28;20068;-78
2023/03/28 02:05:38;;;;;;;11.30;4.15;;;;;;;-0.87;93.05;102550.56;5067500;28;20047;-78
2023/03/28 02:08:12;;;;;;;9.00;4.05;;;;;;;-0.88;92.88;102554.84;5067436;28;20174;-78
2023/03/28 02:10:47;;;;;;;15.10;4.05;;;;;;;-0.88;92.93;102548.78;5063129;28;20549;-78
2023/03/28 02:13:33;;;;;;;11.00;4.15;;;;;;;-0.90;92.99;102546.09;5063853;28;20536;-79
2023/03/28 02:16:24;;;;;;;12.38;3.35;;;;;;;-0.89;92.96;102539.25;5067495;28;20055;-79
2023/03/28 02:19:03;;;;;;;12.07;3.90;;;;;;;-0.93;92.98;102540.81;5065758;28;20045;-79
2023/03/28 02:21:51;;;;;;;17.45;4.55;;;;;;;-0.96;92.96;102544.13;5061624;28;20052;-76
2023/03/28 02:24:50;;;;;;;11.25;3.38;;;;;;;-1.00;92.96;102543.94;5045361;28;20080;-76
2023/03/28 02:27:38;;;;;;;16.83;6.95;;;;;;;-1.03;92.69;102536.91;5066742;28;20041;-76
2023/03/28 02:30:21;;;;;;;16.33;6.32;;;;;;;-1.06;93.08;102535.91;5064682;28;20131;-76
2023/03/28 02:32:50;;;;;;;10.80;4.85;;;;;;;-1.11;93.06;102539.16;5063684;28;20897;-76
2023/03/28 02:35:31;;;;;;;8.70;4.60;;;;;;;-1.12;93.08;102545.13;5067118;28;20041;-76
2023/03/28 02:38:20;;;;;;;11.35;3.97;;;;;;;-1.12;93.28;102546.84;5066215;28;20041;-77
2023/03/28 02:41:32;;;;;;;10.95;3.10;;;;;;;-1.14;93.31;102541.63;5065746;28;20056;-77
2023/03/28 02:44:40;;;;;;;9.57;3.28;;;;;;;-1.15;93.33;102538.94;5061135;28;20053;-78
2023/03/28 02:47:38;;;;;;;10.52;4.05;;;;;;;-1.16;93.44;102534.59;5080189;28;20053;-77
2023/03/28 02:50:43;;;;;;;10.15;3.65;;;;;;;-1.18;93.37;102537.13;5065158;28;20196;-79
2023/03/28 02:53:43;;;;;;;10.32;3.25;;;;;;;-1.20;93.41;102535.28;5069623;28;20888;-79
2023/03/28 02:56:25;;;;;;;7.63;3.05;;;;;;;-1.24;93.35;102539.44;5057947;28;20037;-77
2023/03/28 02:59:25;;;;;;;14.60;3.25;;;;;;;-1.25;93.54;102537.66;5066622;28;20517;-77
2023/03/28 03:01:53;;;;;;;10.40;4.13;;;;;;;-1.27;93.54;102537.56;5067164;28;20041;-77
2023/03/28 03:04:20;;;;;;;13.15;2.80;;;;;;;-1.28;93.49;102541.00;5067504;28;20849;-77
2023/03/28 03:06:47;;;;;;;5.82;2.60;;;;;;;-1.29;93.54;102540.91;5068714;28;20045;-77
2023/03/28 03:09:16;;;;;;;13.88;3.45;;;;;;;-1.30;93.69;102539.13;5067331;28;20041;-78
2023/03/28 03:11:43;;;;;;;10.75;3.70;;;;;;;-1.29;93.74;102531.47;5067240;28;20764;-76
2023/03/28 03:14:11;;;;;;;13.50;4.63;;;;;;;-1.24;93.83;102544.63;5072701;28;20041;-78
2023/03/28 03:16:38;;;;;;;10.52;3.60;;;;;;;-1.22;93.85;102545.53;5071550;28;20037;-76
2023/03/28 03:19:06;;;;;;;8.07;2.80;;;;;;;-1.19;93.97;102544.81;5097935;28;20091;-78
2023/03/28 03:21:35;;;;;;;12.15;4.68;;;;;;;-1.16;94.03;102539.75;5062109;28;20123;-77
2023/03/28 03:24:03;;;;;;;12.23;3.22;;;;;;;-1.14;93.94;102541.63;5066231;28;20856;-78
2023/03/28 03:26:30;;;;;;;7.30;3.20;;;;;;;-1.14;94.00;102536.44;5086552;28;20045;-77
2023/03/28 03:29:02;;;;;;;15.27;4.30;;;;;;;-1.14;94.03;102548.50;5069056;28;20040;-78
2023/03/28 03:31:31;;;;;;;11.80;4.70;;;;;;;-1.13;94.01;102543.41;5067487;28;20051;-77
2023/03/28 03:34:04;;;;;;;12.68;4.85;;;;;;;-1.13;93.92;102542.50;5066557;28;20738;-77
2023/03/28 03:36:39;;;;;;;8.05;3.47;;;;;;;-1.16;93.91;102545.84;5082404;28;20080;-77
2023/03/28 03:39:06;;;;;;;12.77;5.38;;;;;;;-1.18;93.99;102547.47;5065484;28;20545;-77
2023/03/28 03:41:33;;;;;;;10.07;4.28;;;;;;;-1.20;93.96;102545.63;5055787;28;20053;-77
2023/03/28 03:44:01;;;;;;;10.95;4.05;;;;;;;-1.21;94.16;102543.84;5065379;28;20152;-78
2023/03/28 03:46:29;;;;;;;12.00;5.50;;;;;;;-1.19;94.27;102543.09;5067202;28;20053;-77
2023/03/28 03:48:56;;;;;;;10.95;4.22;;;;;;;-1.20;94.16;102543.03;5063964;28;20052;-78
2023/03/28 03:51:24;;;;;;;9.45;4.10;;;;;;;-1.22;94.11;102542.09;5066248;28;20090;-78
2023/03/28 03:53:55;;;;;;;17.13;5.43;;;;;;;-1.25;94.27;102529.91;5064948;28;20045;-77
2023/03/28 03:56:30;;;;;;;10.55;5.30;;;;;;;-1.26;94.26;102541.06;5056920;28;20049;-77
2023/03/28 03:58:59;;;;;;;11.48;5.28;;;;;;;-1.29;94.17;102527.97;5064363;28;20128;-77
2023/03/28 04:01:30;;;;;;;12.20;4.60;;;;;;;-1.31;94.12;102533.09;5063763;28;20045;-77
2023/03/28 04:04:16;;;;;;;10.57;4.53;;;;;;;-1.36;94.18;102537.16;5062499;28;20100;-77
2023/03/28 04:07:06;;;;;;;9.30;3.45;;;;;;;-1.41;94.25;102533.47;5063810;28;20107;-76
2023/03/28 04:09:34;;;;;;;13.05;5.50;;;;;;;-1.43;94.15;102538.59;5066596;28;20060;-77
2023/03/28 04:12:06;;;;;;;14.32;5.88;;;;;;;-1.43;94.46;102540.28;5064673;28;20049;-77
2023/03/28 04:14:43;;;;;;;13.65;4.00;;;;;;;-1.47;94.31;102531.50;5067292;28;20072;-77
2023/03/28 04:17:40;;;;;;;10.30;4.63;;;;;;;-1.49;94.38;102532.25;5067138;28;20044;-77
2023/03/28 04:20:14;;;;;;;10.80;4.10;;;;;;;-1.52;94.25;102532.09;5064140;28;20099;-75
2023/03/28 04:23:00;;;;;;;8.27;4.07;;;;;;;-1.57;94.42;102534.47;5065364;28;20045;-77
2023/03/28 04:25:30;;;;;;;12.43;3.63;;;;;;;-1.59;94.56;102539.56;5065559;28;20092;-77
2023/03/28 04:28:03;;;;;;;14.43;5.05;;;;;;;-1.62;94.41;102541.09;5065974;28;20049;-77
2023/03/28 04:30:37;;;;;;;12.35;4.20;;;;;;;-1.67;94.36;102540.03;5065682;28;20549;-76
2023/03/28 04:33:26;;;;;;;15.00;4.25;;;;;;;-1.70;94.58;102540.75;5050771;28;20057;-77
2023/03/28 04:35:58;;;;;;;13.90;4.00;;;;;;;-1.72;94.61;102542.38;5062585;28;20774;-76
2023/03/28 04:38:31;;;;;;;8.38;4.00;;;;;;;-1.75;94.57;102534.47;5063949;28;20612;-77
2023/03/28 04:41:12;;;;;;;10.98;6.32;;;;;;;-1.73;94.76;102540.59;5080175;28;20053;-78
2023/03/28 04:44:14;;;;;;;8.60;4.07;;;;;;;-1.74;94.70;102538.84;5071982;28;20060;-77
2023/03/28 04:46:49;;;;;;;10.73;4.47;;;;;;;-1.75;94.68;102544.81;5068872;28;20049;-78
2023/03/28 04:49:16;;;;;;;10.18;4.57;;;;;;;-1.77;94.71;102534.41;5068454;28;20064;-78
2023/03/28 04:51:43;;;;;;;11.45;4.88;;;;;;;-1.77;94.63;102544.75;5064080;28;20575;-76
2023/03/28 04:54:10;;;;;;;10.50;4.55;;;;;;;-1.78;94.65;102540.38;5098556;28;20107;-75
2023/03/28 04:56:46;;;;;;;15.40;5.78;;;;;;;-1.78;94.92;102542.09;5064271;28;20909;-76
2023/03/28 04:59:20;;;;;;;13.60;5.57;;;;;;;-1.79;94.82;102537.75;5066342;28;21133;-75
2023/03/28 05:01:48;;;;;;;13.05;5.30;;;;;;;-1.79;94.84;102548.09;5067917;28;20045;-76
2023/03/28 05:04:34;;;;;;;14.27;4.95;;;;;;;-1.79;94.84;102542.91;5083293;28;20687;-76
2023/03/28 05:07:04;;;;;;;16.13;5.35;;;;;;;-1.79;94.80;102545.50;5062793;28;20041;-75
2023/03/28 05:09:32;;;;;;;9.88;4.90;;;;;;;-1.79;94.97;102551.53;5061308;28;20230;-75
2023/03/28 05:12:00;;;;;;;10.18;5.25;;;;;;;-1.78;94.87;102560.22;5065535;28;20123;-75
2023/03/28 05:14:28;;;;;;;15.73;7.72;;;;;;;-1.75;94.99;102556.06;5065190;28;20502;-76
2023/03/28 05:17:07;;;;;;;10.18;5.47;;;;;;;-1.71;94.96;102551.91;5060807;28;20052;-79
2023/03/28 05:19:46;;;;;;;14.50;5.43;;;;;;;-1.68;95.08;102551.16;5063624;28;20045;-79
2023/03/28 05:22:18;;;;;;;13.60;5.68;;;;;;;-1.65;95.23;102553.91;5068677;28;20041;-77
2023/03/28 05:24:46;;;;;;;13.50;5.15;;;;;;;-1.61;95.30;102559.31;5068992;28;20805;-79
2023/03/28 05:27:19;;;;;;;12.50;5.53;;;;;;;-1.52;95.41;102551.06;5070101;28;20055;-78
2023/03/28 05:29:47;;;;;;;12.13;6.20;;;;;;;-1.43;95.30;102556.72;5095381;28;20485;-78
2023/03/28 05:32:16;;;;;;;12.88;6.07;;;;;;;-1.34;95.17;102560.53;5066599;28;20045;-78
2023/03/28 05:34:44;;;;;;;13.63;5.72;;;;;;;-1.29;95.17;102572.88;5063423;28;20367;-80
2023/03/28 05:37:11;;;;;;;9.90;5.20;;;;;;;-1.26;94.89;102570.41;5066562;28;20461;-79
2023/03/28 05:39:48;;;;;;;12.13;5.70;;;;;;;-1.21;94.72;102569.75;5065147;28;20060;-79
2023/03/28 05:42:15;;;;;;;15.20;6.15;;;;;;;-1.17;94.67;102574.25;5067479;28;20862;-79
2023/03/28 05:44:42;;;;;;;17.25;7.72;;;;;;;-1.13;94.66;102582.22;5072131;28;20048;-79
2023/03/28 05:47:28;;;;;;;12.35;5.97;;;;;;;-1.07;94.53;102578.13;5068310;28;20128;-78
2023/03/28 05:49:57;;;;;;;11.63;5.40;;;;;;;-1.02;94.48;102582.72;5091869;28;20071;-77
2023/03/28 05:52:24;;;;;;;17.88;8.50;;;;;;;-0.95;94.60;102584.75;5076028;28;20041;-77
2023/03/28 05:54:51;;;;;;;13.82;6.85;;;;;;;-0.88;94.42;102585.03;5069298;28;20072;-77
2023/03/28 05:57:21;;;;;;;11.32;6.15;;;;;;;-0.85;94.37;102585.16;5073040;28;20037;-78
2023/03/28 05:59:48;;;;;;;12.82;6.07;;;;;;;-0.78;94.47;102582.03;5072910;28;20649;-77
2023/03/28 06:02:21;;;;;;;13.90;7.82;;;;;;;-0.71;94.52;102578.91;5072776;28;20048;-78
2023/03/28 06:04:52;;;;;;;16.23;8.27;;;;;;;-0.63;94.35;102574.94;5072064;28;20136;-78
2023/03/28 06:07:21;;;;;;;14.75;8.00;;;;;;;-0.54;94.43;102577.06;5080984;28;20033;-79
2023/03/28 06:10:08;;;;;;;19.63;8.77;;;;;;;-0.42;94.16;102576.69;5076766;28;20041;-78
2023/03/28 06:12:36;;;;;;;15.77;8.15;;;;;;;-0.31;94.33;102574.56;5109128;28;20040;-79
2023/03/28 06:15:04;;;;;;;17.10;7.90;;;;;;;-0.18;94.13;102574.25;5108252;28;20051;-79
2023/03/28 06:17:35;;;;;;;14.50;7.85;;;;;;;-0.06;93.97;102573.00;5097593;28;20076;-79
2023/03/28 06:20:05;;;;;;;16.60;8.10;;;;;;;0.05;93.83;102569.13;5086466;28;20102;-78
2023/03/28 06:22:32;;;;;;;16.52;8.38;;;;;;;0.14;93.75;102573.81;5085191;28;20049;-78
2023/03/28 06:25:06;;;;;;;16.33;7.00;;;;;;;0.21;93.60;102569.75;5082202;28;20049;-78
2023/03/28 06:27:34;;;;;;;14.48;8.02;;;;;;;0.29;93.42;102569.22;5078896;28;20037;-78
2023/03/28 06:30:04;;;;;;;16.35;7.80;;;;;;;0.36;93.52;102569.47;5077502;28;20089;-78
2023/03/28 06:32:38;;;;;;;20.83;7.90;;;;;;;0.42;93.36;102574.91;5076047;28;20136;-78
2023/03/28 06:35:06;;;;;;;17.60;8.07;;;;;;;0.48;93.37;102576.88;5068633;28;20037;-78
2023/03/28 06:37:33;;;;;;;13.88;7.57;;;;;;;0.56;93.28;102576.31;5084317;28;20517;-77
2023/03/28 06:40:08;;;;;;;17.23;8.15;;;;;;;0.65;93.19;102578.41;5071566;28;20076;-79
2023/03/28 06:42:36;;;;;;;17.25;7.78;;;;;;;0.74;93.05;102575.28;5082855;28;20068;-78
2023/03/28 06:45:15;;;;;;;19.27;8.40;;;;;;;0.81;93.16;102577.28;5084518;28;20056;-78
2023/03/28 06:47:52;;;;;;;14.68;7.88;;;;;;;0.93;93.15;102582.94;5085558;28;20049;-79
2023/03/28 06:50:27;;;;;;;14.25;7.35;;;;;;;1.07;93.11;102574.75;5088098;28;20059;-79
2023/03/28 06:52:59;;;;;;;13.90;7.95;;;;;;;1.17;93.11;102565.59;5084433;28;20127;-78
2023/03/28 06:55:26;;;;;;;16.05;8.05;;;;;;;1.32;93.04;102567.88;5081102;28;20089;-79
2023/03/28 06:57:54;;;;;;;16.42;8.57;;;;;;;1.44;92.93;102580.41;5080733;28;20041;-79
2023/03/28 07:00:31;;;;;;;15.98;8.20;;;;;;;1.60;92.94;102577.53;5100025;28;20044;-78
2023/03/28 07:03:16;;;;;;;14.07;7.93;;;;;;;1.80;92.80;102572.13;5076248;28;20049;-78
2023/03/28 07:05:44;;;;;;;13.82;8.43;;;;;;;2.00;92.63;102581.47;5094190;28;20045;-79
2023/03/28 07:08:12;;;;;;;17.50;8.05;;;;;;;2.20;92.42;102573.44;5090626;28;20044;-80
2023/03/28 07:10:40;;;;;;;16.45;8.02;;;;;;;2.39;92.17;102574.88;5090398;28;20043;-78
2023/03/28 07:13:08;;;;;;;14.80;7.47;;;;;;;2.59;91.90;102577.25;5090286;28;20084;-80
2023/03/28 07:15:44;;;;;;;16.67;8.07;;;;;;;2.77;91.43;102572.59;5092347;28;20101;-80
2023/03/28 07:18:11;;;;;;;12.02;6.93;;;;;;;2.89;91.11;102576.41;5086292;28;20045;-80
2023/03/28 07:20:40;;;;;;;13.60;7.20;;;;;;;3.00;90.62;102582.78;5089173;28;20045;-80
2023/03/28 07:23:07;;;;;;;11.40;7.43;;;;;;;3.07;90.35;102584.75;5090029;28;20021;-80
2023/03/28 07:25:35;;;;;;;13.25;8.18;;;;;;;3.10;89.66;102586.56;5072347;28;20053;-80
2023/03/28 07:28:02;;;;;;;17.60;7.95;;;;;;;3.14;89.44;102596.25;5085395;28;20037;-80
2023/03/28 07:30:30;;;;;;;16.85;7.50;;;;;;;3.15;89.19;102595.41;5068777;28;20949;-80
2023/03/28 07:32:57;;;;;;;18.75;9.10;;;;;;;3.19;88.98;102597.25;5067535;28;20050;-80
2023/03/28 07:35:40;;;;;;;14.82;9.32;;;;;;;3.23;88.71;102598.19;5066065;28;20045;-80
2023/03/28 07:38:11;;;;;;;20.40;8.95;;;;;;;3.28;88.56;102604.44;5063303;28;20034;-81
2023/03/28 07:40:54;;;;;;;20.65;8.57;;;;;;;3.34;88.48;102602.00;5062822;28;20053;-81
2023/03/28 07:43:21;;;;;;;19.90;9.43;;;;;;;3.40;88.35;102599.59;5073984;28;20044;-80
2023/03/28 07:45:48;;;;;;;17.05;9.07;;;;;;;3.48;88.29;102604.97;5081669;28;20033;-81
2023/03/28 07:48:15;;;;;;;14.30;8.23;;;;;;;3.57;88.17;102610.44;5084476;28;20045;-81
2023/03/28 07:50:43;;;;;;;16.08;9.82;;;;;;;3.67;88.00;102608.09;5077634;28;20702;-81
2023/03/28 07:53:13;;;;;;;17.25;9.85;;;;;;;3.74;87.91;102610.03;5077896;28;20049;-80
2023/03/28 07:55:42;;;;;;;19.65;10.43;;;;;;;3.82;87.69;102605.91;5098745;28;20045;-81
2023/03/28 07:58:24;;;;;;;14.85;7.15;;;;;;;3.95;87.61;102609.69;5098401;28;20074;-81
2023/03/28 08:00:55;;;;;;;11.50;7.93;;;;;;;4.08;87.70;102610.00;5098308;28;20040;-80
2023/03/28 08:03:41;;;;;;;16.58;9.07;;;;;;;4.23;87.43;102609.50;5097409;28;20402;-80
2023/03/28 08:06:12;;;;;;;17.05;7.70;;;;;;;4.36;87.10;102606.34;5096078;28;20583;-80
2023/03/28 08:08:57;;;;;;;18.55;7.43;;;;;;;4.52;86.59;102602.38;5096170;28;20204;-81
2023/03/28 08:11:35;;;;;;;16.85;7.13;;;;;;;4.65;86.15;102599.19;5093524;28;20617;-81
2023/03/28 08:14:08;;;;;;;15.50;7.18;;;;;;;4.80;85.72;102600.38;5095791;28;20037;-82
2023/03/28 08:16:35;;;;;;;11.35;6.43;;;;;;;4.95;85.32;102605.91;5083469;28;20045;-80
2023/03/28 08:19:03;;;;;;;20.13;7.88;;;;;;;5.07;84.67;102601.81;5073558;28;20042;-81
2023/03/28 08:21:54;;;;;;;14.73;6.25;;;;;;;5.17;84.17;102606.38;5084463;28;20045;-81
2023/03/28 08:24:21;;;;;;;13.00;6.35;;;;;;;5.31;83.94;102605.78;5074314;28;20045;-81
2023/03/28 08:27:08;;;;;;;11.32;5.45;;;;;;;5.46;83.84;102600.84;5076224;28;20049;-81
2023/03/28 08:29:35;;;;;;;12.45;5.82;;;;;;;5.67;82.93;102600.38;5075159;28;20116;-80
2023/03/28 08:32:05;;;;;;;11.07;5.38;;;;;;;5.92;83.19;102592.94;5075669;28;20037;-81
2023/03/28 08:34:34;;;;;;;10.55;5.10;;;;;;;6.15;82.55;102596.00;5073552;28;20045;-81
2023/03/28 08:37:07;;;;;;;9.32;4.55;;;;;;;6.33;80.93;102605.00;5075431;28;20158;-81
2023/03/28 08:39:36;;;;;;;12.50;4.50;;;;;;;6.45;79.58;102596.44;5078691;28;20652;-82
2023/03/28 08:42:26;;;;;;;12.07;3.88;;;;;;;6.60;79.37;102601.91;5077901;28;20048;-82
2023/03/28 08:45:31;;;;;;;9.13;4.28;;;;;;;6.76;80.24;102597.78;5073695;28;20056;-82
2023/03/28 08:48:16;;;;;;;8.50;3.92;;;;;;;6.92;79.78;102592.72;5071993;28;20042;-80
2023/03/28 08:50:48;;;;;;;10.60;3.80;;;;;;;7.05;79.30;102599.91;5056305;28;20042;-82
2023/03/28 08:53:37;;;;;;;8.95;3.88;;;;;;;7.13;78.06;102598.25;5076897;28;20110;-80
2023/03/28 08:56:07;;;;;;;9.73;3.90;;;;;;;7.18;76.38;102592.16;5073832;28;20080;-81
2023/03/28 08:59:09;;;;;;;8.88;3.55;;;;;;;7.19;75.64;102586.94;5077008;28;20041;-82
2023/03/28 09:01:38;;;;;;;10.38;3.58;;;;;;;7.22;74.50;102584.38;5075656;28;20057;-81
2023/03/28 09:04:05;;;;;;;12.93;2.55;;;;;;;7.26;75.01;102582.66;5073233;28;20041;-81
2023/03/28 09:06:46;;;;;;;6.57;2.92;;;;;;;7.32;73.67;102579.22;5072703;28;20037;-81
2023/03/28 09:09:33;;;;;;;7.75;3.22;;;;;;;7.41;72.18;102580.19;5074643;28;20056;-81
2023/03/28 09:13:28;;;;;;;10.65;4.25;;;;;;;7.48;72.98;102580.28;5075244;28;20033;-81
2023/03/28 09:16:42;;;;;;;11.27;3.78;;;;;;;7.69;73.10;102575.19;5026819;28;20144;-81
2023/03/28 09:19:39;;;;;;;6.95;2.13;;;;;;;7.86;73.30;102577.13;5012018;28;20049;-80
2023/03/28 09:22:54;;;;;;;6.43;2.15;;;;;;;8.02;70.10;102568.50;5068778;28;20052;-80
2023/03/28 09:25:53;;;;;;;4.45;2.20;;;;;;;8.02;66.77;102570.25;5072290;28;20056;-80
2023/03/28 09:28:53;;;;;;;5.50;2.10;;;;;;;7.96;66.12;102567.56;5074002;28;20517;-81
2023/03/28 09:31:29;;;;;;;6.93;2.38;;;;;;;7.99;68.27;102567.59;5077251;28;20096;-81
2023/03/28 09:34:02;;;;;;;11.15;2.65;;;;;;;8.09;68.70;102561.53;5075710;28;20033;-80
2023/03/28 09:36:43;;;;;;;10.18;3.20;;;;;;;8.20;68.25;102569.50;5075518;28;20119;-81
2023/03/28 09:39:32;;;;;;;5.10;2.70;;;;;;;8.30;67.04;102565.19;5073919;28;20049;-81
2023/03/28 09:42:30;;;;;;;13.18;2.70;;;;;;;8.35;66.34;102560.84;5074516;28;20049;-80
2023/03/28 09:45:34;;;;;;;9.30;2.80;;;;;;;8.41;65.28;102563.53;5060027;28;20104;-80
2023/03/28 09:48:28;;;;;;;9.37;2.60;;;;;;;8.48;66.19;102560.09;5066717;28;20343;-81
2023/03/28 09:51:14;;;;;;;10.48;2.70;;;;;;;8.59;65.48;102561.91;5064526;28;20078;-79
2023/03/28 09:53:42;;;;;;;9.93;1.92;;;;;;;8.69;64.46;102553.19;5063352;28;20042;-80
2023/03/28 09:56:32;;;;;;;6.97;1.83;;;;;;;8.78;64.19;102557.63;5048197;28;20132;-80
2023/03/28 09:59:25;;;;;;;6.55;1.88;;;;;;;8.85;64.07;102552.38;5048493;28;20514;-80
2023/03/28 10:01:58;;;;;;;7.40;2.40;;;;;;;8.90;62.79;102546.25;5056679;28;20080;-79
2023/03/28 10:04:37;;;;;;;4.97;1.95;;;;;;;8.96;63.12;102546.28;5070171;28;20037;-79
2023/03/28 10:07:44;;;;;;;7.15;2.00;;;;;;;9.04;61.70;102536.69;5070640;28;20045;-80
2023/03/28 10:10:30;;;;;;;14.98;2.45;;;;;;;9.14;62.06;102532.31;5058744;28;20038;-81
2023/03/28 10:13:03;;;;;;;12.43;2.42;;;;;;;9.25;62.07;102533.22;5070087;28;20049;-80
2023/03/28 10:15:42;;;;;;;8.48;2.25;;;;;;;9.38;60.74;102531.47;5073933;28;20051;-80
2023/03/28 10:18:30;;;;;;;5.40;1.70;;;;;;;9.44;59.98;102520.09;5069767;28;21002;-80
2023/03/28 10:21:39;;;;;;;3.58;1.23;;;;;;;9.52;59.61;102520.09;5070228;28;20473;-80
2023/03/28 10:24:17;;;;;;;4.20;1.42;;;;;;;9.52;59.94;102518.34;5066538;28;20142;-80
2023/03/28 10:26:55;;;;;;;7.15;1.38;;;;;;;9.63;60.04;102511.31;5069899;28;20042;-81
2023/03/28 10:29:22;;;;;;;4.78;1.55;;;;;;;9.69;58.57;102512.22;5074398;28;20045;-79
2023/03/28 10:31:50;;;;;;;7.85;1.75;;;;;;;9.76;57.81;102503.44;5091152;28;20040;-79
2023/03/28 10:34:32;;;;;;;7.90;1.30;;;;;;;9.80;56.88;102505.19;5072651;28;20369;-80
2023/03/28 10:37:32;;;;;;;9.52;1.95;;;;;;;9.86;57.86;102501.69;5094768;28;20041;-80
2023/03/28 10:40:17;;;;;;;4.85;1.48;;;;;;;9.89;57.30;102492.03;5078036;28;20037;-79
2023/03/28 10:43:14;;;;;;;9.90;2.00;;;;;;;9.87;56.46;102483.22;5067678;28;20573;-80
2023/03/28 10:45:54;;;;;;;6.57;2.03;;;;;;;9.86;56.98;102491.16;5108890;28;20044;-80
2023/03/28 10:48:33;;;;;;;5.97;1.90;;;;;;;9.92;56.51;102483.22;5076205;28;20418;-79
2023/03/28 10:51:15;;;;;;;8.23;1.77;;;;;;;9.93;56.51;102479.72;5074568;28;20053;-80
2023/03/28 10:54:00;;;;;;;5.28;1.30;;;;;;;9.97;55.13;102473.53;5073451;28;20045;-81
2023/03/28 10:56:49;;;;;;;5.32;1.52;;;;;;;9.99;55.49;102468.28;5072415;28;20048;-79
2023/03/28 10:59:27;;;;;;;3.75;1.33;;;;;;;10.05;55.30;102470.91;5071826;28;20091;-80
2023/03/28 11:02:05;;;;;;;9.50;1.63;;;;;;;10.09;55.47;102460.34;5075128;28;20048;-80
2023/03/28 11:04:58;;;;;;;6.57;1.27;;;;;;;10.13;55.09;102463.00;5074160;28;20033;-79
2023/03/28 11:07:52;;;;;;;6.57;1.40;;;;;;;10.06;53.55;102451.56;5076546;28;20048;-80
2023/03/28 11:11:03;;;;;;;8.27;1.88;;;;;;;9.97;53.09;102447.19;5069205;28;20052;-81
2023/03/28 11:14:09;;;;;;;3.45;1.40;;;;;;;9.93;53.49;102448.97;5073799;28;20045;-80
2023/03/28 11:16:50;;;;;;;7.35;1.40;;;;;;;9.95;53.61;102441.94;5073918;28;20060;-80
2023/03/28 11:19:44;;;;;;;6.47;1.45;;;;;;;10.04;53.76;102438.41;5088010;28;20039;-79
2023/03/28 11:22:35;;;;;;;5.22;2.90;;;;;;;10.07;51.72;102443.66;5088381;28;20043;-79
2023/03/28 11:25:39;;;;;;;17.38;3.40;;;;;;;10.13;52.44;102434.00;5088189;28;20095;-79
2023/03/28 11:28:58;;;;;;;8.27;1.60;;;;;;;10.30;52.78;102424.25;5074087;28;20464;-79
2023/03/28 11:31:57;;;;;;;6.72;1.60;;;;;;;10.52;51.53;102424.22;5062285;28;20072;-79
2023/03/28 11:34:41;;;;;;;8.07;1.38;;;;;;;10.70;52.43;102423.25;5063491;28;20053;-80
2023/03/28 11:37:59;;;;;;;6.43;1.55;;;;;;;10.91;51.56;102421.38;5071336;28;20048;-79
2023/03/28 11:40:36;;;;;;;7.10;1.42;;;;;;;10.95;50.19;102413.41;5067167;28;20071;-80
2023/03/28 11:43:16;;;;;;;7.10;1.38;;;;;;;11.00;50.61;102403.69;5069406;28;20060;-80
2023/03/28 11:45:50;;;;;;;12.07;2.15;;;;;;;11.07;51.03;102401.88;5063711;28;20093;-80
2023/03/28 11:48:42;;;;;;;13.48;1.77;;;;;;;11.14;49.49;102390.38;5071320;28;20052;-80
2023/03/28 11:51:22;;;;;;;11.15;2.03;;;;;;;11.13;49.23;102387.78;5086158;28;20073;-80
2023/03/28 11:54:12;;;;;;;5.65;1.90;;;;;;;11.08;47.09;102382.53;5070760;28;20148;-78
2023/03/28 11:57:02;;;;;;;3.50;1.60;;;;;;;11.01;47.47;102373.78;5089274;28;20094;-80
2023/03/28 12:00:04;;;;;;;4.22;1.60;;;;;;;11.06;47.18;102375.53;5067991;28;20113;-80
2023/03/28 12:02:51;;;;;;;8.80;2.08;;;;;;;11.10;46.51;102362.28;5053747;28;20049;-80
2023/03/28 12:05:56;;;;;;;8.15;2.08;;;;;;;11.17;46.65;102363.97;5060618;28;21001;-80
2023/03/28 12:08:45;;;;;;;6.03;1.70;;;;;;;11.28;45.93;102350.69;5077196;28;20053;-80
2023/03/28 12:11:30;;;;;;;7.32;2.20;;;;;;;11.37;45.24;102351.50;5078336;28;20132;-79
2023/03/28 12:14:36;;;;;;;6.55;1.60;;;;;;;11.61;47.50;102339.81;5050288;28;20053;-78
2023/03/28 12:17:30;;;;;;;9.85;1.90;;;;;;;11.91;46.42;102335.06;5049823;28;20045;-79
2023/03/28 12:19:58;;;;;;;4.60;2.00;;;;;;;12.13;45.59;102321.63;5083866;28;20048;-79
2023/03/28 12:22:41;;;;;;;5.35;1.60;;;;;;;12.22;42.03;102318.84;5068307;28;20080;-80